sensor_id;sensor_type;location;lat;lon;timestamp;pressure;altitude;pressure_sealevel;temperature;humidity
21902;BME280;11115;46.038;14.612;2022-10-30T00:02:21;99262.78;;;9.80;100.00
21902;BME280;11115;46.038;14.612;2022-10-30T00:04:52;99251.75;;;9.74;100.00
21902;BME280;11115;46.038;14.612;2022-10-30T00:07:26;99268.84;;;9.87;100.00
21902;BME280;11115;46.038;14.612;2022-10-30T00:09:56;99261.28;;;9.97;100.00
21902;BME280;11115;46.038;14.612;2022-10-30T00:12:35;99268.66;;;10.12;100.00
21902;BME280;11115;46.038;14.612;2022-10-30T00:15:10;99268.66;;;10.22;100.00
21902;BME280;11115;46.038;14.612;2022-10-30T00:17:40;99247.63;;;10.16;100.00
21902;BME280;11115;46.038;14.612;2022-10-30T00:20:15;99261.13;;;10.28;100.00
21902;BME280;11115;46.038;14.612;2022-10-30T00:22:47;99260.00;;;10.29;100.00
21902;BME280;11115;46.038;14.612;2022-10-30T00:25:17;99260.47;;;10.41;100.00
21902;BME280;11115;46.038;14.612;2022-10-30T00:27:59;99246.72;;;10.31;100.00
21902;BME280;11115;46.038;14.612;2022-10-30T00:30:27;99251.09;;;10.37;100.00
21902;BME280;11115;46.038;14.612;2022-10-30T00:32:59;99257.13;;;10.44;100.00
21902;BME280;11115;46.038;14.612;2022-10-30T00:35:30;99257.81;;;10.60;100.00
21902;BME280;11115;46.038;14.612;2022-10-30T00:38:05;99252.84;;;10.57;100.00
21902;BME280;11115;46.038;14.612;2022-10-30T00:40:40;99258.09;;;10.58;100.00
21902;BME280;11115;46.038;14.612;2022-10-30T00:43:39;99251.50;;;10.54;100.00
21902;BME280;11115;46.038;14.612;2022-10-30T00:46:35;99251.06;;;10.42;100.00
21902;BME280;11115;46.038;14.612;2022-10-30T00:49:15;99259.03;;;10.49;100.00
21902;BME280;11115;46.038;14.612;2022-10-30T00:51:51;99254.56;;;10.53;100.00
21902;BME280;11115;46.038;14.612;2022-10-30T00:54:23;99259.22;;;10.57;100.00
21902;BME280;11115;46.038;14.612;2022-10-30T00:56:53;99258.16;;;10.53;100.00
21902;BME280;11115;46.038;14.612;2022-10-30T00:59:30;99264.75;;;10.57;100.00
21902;BME280;11115;46.038;14.612;2022-10-30T01:02:01;99251.75;;;10.58;100.00
21902;BME280;11115;46.038;14.612;2022-10-30T01:04:42;99259.91;;;10.73;100.00
21902;BME280;11115;46.038;14.612;2022-10-30T01:07:20;99262.28;;;10.56;100.00
21902;BME280;11115;46.038;14.612;2022-10-30T01:09:53;99257.56;;;10.56;100.00
21902;BME280;11115;46.038;14.612;2022-10-30T01:12:25;99260.00;;;10.63;100.00
21902;BME280;11115;46.038;14.612;2022-10-30T01:15:02;99251.75;;;10.58;100.00
21902;BME280;11115;46.038;14.612;2022-10-30T01:21:18;99246.50;;;10.56;100.00
21902;BME280;11115;46.038;14.612;2022-10-30T01:27:04;99245.91;;;10.59;100.00
21902;BME280;11115;46.038;14.612;2022-10-30T01:30:00;99241.03;;;10.51;100.00
21902;BME280;11115;46.038;14.612;2022-10-30T01:33:04;99236.91;;;10.49;100.00
21902;BME280;11115;46.038;14.612;2022-10-30T01:39:00;99242.19;;;10.45;100.00
21902;BME280;11115;46.038;14.612;2022-10-30T01:41:36;99222.47;;;10.23;100.00
21902;BME280;11115;46.038;14.612;2022-10-30T01:44:08;99238.00;;;10.48;100.00
21902;BME280;11115;46.038;14.612;2022-10-30T01:53:40;99233.22;;;10.24;100.00
21902;BME280;11115;46.038;14.612;2022-10-30T01:56:23;99231.13;;;10.45;100.00
21902;BME280;11115;46.038;14.612;2022-10-30T01:59:57;99236.97;;;10.39;100.00
21902;BME280;11115;46.038;14.612;2022-10-30T02:02:17;99228.88;;;10.47;100.00
21902;BME280;11115;46.038;14.612;2022-10-30T02:04:47;99229.94;;;10.51;100.00
21902;BME280;11115;46.038;14.612;2022-10-30T02:07:32;99228.66;;;10.44;100.00
21902;BME280;11115;46.038;14.612;2022-10-30T02:10:10;99216.78;;;10.38;100.00
21902;BME280;11115;46.038;14.612;2022-10-30T02:12:40;99222.00;;;10.45;100.00
21902;BME280;11115;46.038;14.612;2022-10-30T02:15:11;99221.78;;;10.36;100.00
21902;BME280;11115;46.038;14.612;2022-10-30T02:17:42;99228.66;;;10.44;100.00
21902;BME280;11115;46.038;14.612;2022-10-30T02:20:18;99225.28;;;10.47;100.00
21902;BME280;11115;46.038;14.612;2022-10-30T02:22:54;99218.53;;;10.29;100.00
21902;BME280;11115;46.038;14.612;2022-10-30T02:25:32;99214.81;;;10.44;100.00
21902;BME280;11115;46.038;14.612;2022-10-30T02:28:17;99213.72;;;10.40;100.00
21902;BME280;11115;46.038;14.612;2022-10-30T02:30:48;99215.94;;;10.38;100.00
21902;BME280;11115;46.038;14.612;2022-10-30T02:33:20;99212.59;;;10.41;100.00
21902;BME280;11115;46.038;14.612;2022-10-30T02:35:52;99211.78;;;10.40;100.00
21902;BME280;11115;46.038;14.612;2022-10-30T02:38:22;99214.28;;;10.42;100.00
21902;BME280;11115;46.038;14.612;2022-10-30T02:40:56;99210.94;;;10.40;100.00
21902;BME280;11115;46.038;14.612;2022-10-30T02:43:35;99212.19;;;10.28;100.00
21902;BME280;11115;46.038;14.612;2022-10-30T02:46:08;99211.25;;;10.38;100.00
21902;BME280;11115;46.038;14.612;2022-10-30T02:48:38;99209.31;;;10.39;100.00
21902;BME280;11115;46.038;14.612;2022-10-30T02:51:08;99207.38;;;10.39;100.00
21902;BME280;11115;46.038;14.612;2022-10-30T02:53:42;99207.03;;;10.46;100.00
21902;BME280;11115;46.038;14.612;2022-10-30T02:56:16;99197.53;;;10.28;100.00
21902;BME280;11115;46.038;14.612;2022-10-30T02:58:44;99209.31;;;10.39;100.00
21902;BME280;11115;46.038;14.612;2022-10-30T03:01:22;99209.75;;;10.51;100.00
21902;BME280;11115;46.038;14.612;2022-10-30T03:03:59;99207.22;;;10.54;100.00
21902;BME280;11115;46.038;14.612;2022-10-30T03:06:29;99206.34;;;10.59;100.00
21902;BME280;11115;46.038;14.612;2022-10-30T03:09:07;99214.47;;;10.50;100.00
21902;BME280;11115;46.038;14.612;2022-10-30T03:11:40;99216.66;;;10.53;100.00
21902;BME280;11115;46.038;14.612;2022-10-30T03:14:17;99213.94;;;10.48;100.00
21902;BME280;11115;46.038;14.612;2022-10-30T03:16:51;99190.25;;;10.37;100.00
21902;BME280;11115;46.038;14.612;2022-10-30T03:19:23;99212.81;;;10.49;100.00
21902;BME280;11115;46.038;14.612;2022-10-30T03:21:56;99208.16;;;10.45;100.00
21902;BME280;11115;46.038;14.612;2022-10-30T03:24:38;99209.63;;;10.66;100.00
21902;BME280;11115;46.038;14.612;2022-10-30T03:27:08;99218.06;;;10.51;100.00
21902;BME280;11115;46.038;14.612;2022-10-30T03:29:40;99210.28;;;10.53;100.00
21902;BME280;11115;46.038;14.612;2022-10-30T03:32:19;99211.16;;;10.48;100.00
21902;BME280;11115;46.038;14.612;2022-10-30T03:34:52;99210.22;;;10.63;100.00
21902;BME280;11115;46.038;14.612;2022-10-30T03:37:24;99186.56;;;10.47;100.00
21902;BME280;11115;46.038;14.612;2022-10-30T03:40:02;99210.75;;;10.60;100.00
21902;BME280;11115;46.038;14.612;2022-10-30T03:42:32;99210.28;;;10.53;100.00
21902;BME280;11115;46.038;14.612;2022-10-30T03:45:09;99218.25;;;10.59;100.00
21902;BME280;11115;46.038;14.612;2022-10-30T03:47:40;99209.72;;;10.56;100.00
21902;BME280;11115;46.038;14.612;2022-10-30T03:50:25;99207.75;;;10.61;100.00
21902;BME280;11115;46.038;14.612;2022-10-30T03:52:57;99207.03;;;10.46;100.00
21902;BME280;11115;46.038;14.612;2022-10-30T03:55:25;99210.41;;;10.43;100.00
21902;BME280;11115;46.038;14.612;2022-10-30T03:57:54;99214.00;;;10.38;100.00
21902;BME280;11115;46.038;14.612;2022-10-30T04:00:30;99195.78;;;10.37;100.00
21902;BME280;11115;46.038;14.612;2022-10-30T04:03:08;99210.81;;;10.55;100.00
21902;BME280;11115;46.038;14.612;2022-10-30T04:05:41;99210.41;;;10.38;100.00
21902;BME280;11115;46.038;14.612;2022-10-30T04:08:13;99213.41;;;10.46;100.00
21902;BME280;11115;46.038;14.612;2022-10-30T04:10:56;99192.41;;;10.40;100.00
21902;BME280;11115;46.038;14.612;2022-10-30T04:13:26;99192.16;;;10.42;100.00
21902;BME280;11115;46.038;14.612;2022-10-30T04:16:08;99200.16;;;10.43;100.00
21902;BME280;11115;46.038;14.612;2022-10-30T04:18:40;99206.69;;;10.52;100.00
21902;BME280;11115;46.038;14.612;2022-10-30T04:21:11;99208.75;;;10.42;100.00
21902;BME280;11115;46.038;14.612;2022-10-30T04:23:42;99202.81;;;10.53;100.00
21902;BME280;11115;46.038;14.612;2022-10-30T04:26:14;99204.22;;;10.51;100.00
21902;BME280;11115;46.038;14.612;2022-10-30T04:28:47;99207.59;;;10.48;100.00
21902;BME280;11115;46.038;14.612;2022-10-30T04:31:23;99209.47;;;10.52;100.00
21902;BME280;11115;46.038;14.612;2022-10-30T04:34:00;99180.53;;;10.40;100.00
21902;BME280;11115;46.038;14.612;2022-10-30T04:36:28;99201.06;;;10.33;100.00
21902;BME280;11115;46.038;14.612;2022-10-30T04:39:00;99202.28;;;10.51;100.00
21902;BME280;11115;46.038;14.612;2022-10-30T04:41:29;99193.91;;;10.61;100.00
21902;BME280;11115;46.038;14.612;2022-10-30T04:44:08;99203.59;;;10.59;100.00
21902;BME280;11115;46.038;14.612;2022-10-30T04:46:37;99205.72;;;10.67;100.00
21902;BME280;11115;46.038;14.612;2022-10-30T04:49:14;99203.78;;;10.39;100.00
21902;BME280;11115;46.038;14.612;2022-10-30T04:52:12;99199.69;;;10.60;100.00
21902;BME280;11115;46.038;14.612;2022-10-30T04:54:41;99186.97;;;10.64;100.00
21902;BME280;11115;46.038;14.612;2022-10-30T04:57:13;99200.06;;;10.77;100.00
21902;BME280;11115;46.038;14.612;2022-10-30T04:59:46;99199.25;;;10.77;100.00
21902;BME280;11115;46.038;14.612;2022-10-30T05:02:17;99196.31;;;10.68;100.00
21902;BME280;11115;46.038;14.612;2022-10-30T05:04:55;99178.44;;;10.55;100.00
21902;BME280;11115;46.038;14.612;2022-10-30T05:07:37;99192.72;;;10.68;100.00
21902;BME280;11115;46.038;14.612;2022-10-30T05:10:12;99182.22;;;10.36;100.00
21902;BME280;11115;46.038;14.612;2022-10-30T05:12:44;99189.91;;;10.44;100.00
21902;BME280;11115;46.038;14.612;2022-10-30T05:15:15;99190.47;;;10.41;100.00
21902;BME280;11115;46.038;14.612;2022-10-30T05:17:54;99181.34;;;10.40;100.00
21902;BME280;11115;46.038;14.612;2022-10-30T05:20:30;99183.88;;;10.37;100.00
21902;BME280;11115;46.038;14.612;2022-10-30T05:23:03;99178.94;;;10.33;100.00
21902;BME280;11115;46.038;14.612;2022-10-30T05:25:35;99177.75;;;10.45;100.00
21902;BME280;11115;46.038;14.612;2022-10-30T05:28:13;99168.16;;;10.32;100.00
21902;BME280;11115;46.038;14.612;2022-10-30T05:30:52;99181.81;;;10.23;100.00
21902;BME280;11115;46.038;14.612;2022-10-30T05:33:49;99186.34;;;10.38;100.00
21902;BME280;11115;46.038;14.612;2022-10-30T05:36:19;99188.47;;;10.22;100.00
21902;BME280;11115;46.038;14.612;2022-10-30T05:39:04;99185.00;;;10.36;100.00
21902;BME280;11115;46.038;14.612;2022-10-30T05:41:42;99181.41;;;10.35;100.00
21902;BME280;11115;46.038;14.612;2022-10-30T05:44:41;99188.69;;;10.26;100.00
21902;BME280;11115;46.038;14.612;2022-10-30T05:47:31;99186.09;;;10.00;100.00
21902;BME280;11115;46.038;14.612;2022-10-30T05:50:21;99185.19;;;10.10;100.00
21902;BME280;11115;46.038;14.612;2022-10-30T05:53:11;99197.84;;;10.21;100.00
21902;BME280;11115;46.038;14.612;2022-10-30T05:55:48;99202.84;;;10.14;100.00
21902;BME280;11115;46.038;14.612;2022-10-30T05:58:21;99185.97;;;10.16;100.00
21902;BME280;11115;46.038;14.612;2022-10-30T06:00:50;99190.72;;;10.10;100.00
21902;BME280;11115;46.038;14.612;2022-10-30T06:03:38;99194.53;;;10.24;100.00
21902;BME280;11115;46.038;14.612;2022-10-30T06:06:10;99196.88;;;10.41;100.00
21902;BME280;11115;46.038;14.612;2022-10-30T06:08:43;99196.75;;;10.22;100.00
21902;BME280;11115;46.038;14.612;2022-10-30T06:11:30;99195.59;;;10.28;100.00
21902;BME280;11115;46.038;14.612;2022-10-30T06:14:05;99199.66;;;10.36;100.00
21902;BME280;11115;46.038;14.612;2022-10-30T06:17:01;99199.34;;;10.43;100.00
21902;BME280;11115;46.038;14.612;2022-10-30T06:19:35;99204.03;;;10.42;100.00
21902;BME280;11115;46.038;14.612;2022-10-30T06:22:21;99200.81;;;10.30;100.00
21902;BME280;11115;46.038;14.612;2022-10-30T06:25:01;99209.94;;;10.30;100.00
21902;BME280;11115;46.038;14.612;2022-10-30T06:28:04;99205.81;;;10.28;100.00
21902;BME280;11115;46.038;14.612;2022-10-30T06:30:34;99211.75;;;10.45;100.00
21902;BME280;11115;46.038;14.612;2022-10-30T06:33:12;99212.59;;;10.46;100.00
21902;BME280;11115;46.038;14.612;2022-10-30T06:35:48;99211.22;;;10.43;100.00
21902;BME280;11115;46.038;14.612;2022-10-30T06:38:24;99210.56;;;10.22;100.00
21902;BME280;11115;46.038;14.612;2022-10-30T06:40:56;99212.22;;;10.23;100.00
21902;BME280;11115;46.038;14.612;2022-10-30T06:43:30;99192.28;;;10.26;100.00
21902;BME280;11115;46.038;14.612;2022-10-30T06:46:11;99162.97;;;10.20;100.00
21902;BME280;11115;46.038;14.612;2022-10-30T06:48:55;99218.34;;;10.78;100.00
21902;BME280;11115;46.038;14.612;2022-10-30T06:51:28;99221.81;;;10.65;100.00
21902;BME280;11115;46.038;14.612;2022-10-30T06:54:00;99219.19;;;10.50;100.00
21902;BME280;11115;46.038;14.612;2022-10-30T06:56:42;99218.66;;;10.48;100.00
21902;BME280;11115;46.038;14.612;2022-10-30T06:59:32;99221.00;;;10.59;100.00
21902;BME280;11115;46.038;14.612;2022-10-30T07:02:23;99219.06;;;10.60;100.00
21902;BME280;11115;46.038;14.612;2022-10-30T07:05:01;99217.91;;;10.66;100.00
21902;BME280;11115;46.038;14.612;2022-10-30T07:07:33;99230.09;;;10.65;100.00
21902;BME280;11115;46.038;14.612;2022-10-30T07:10:03;99222.50;;;10.76;100.00
21902;BME280;11115;46.038;14.612;2022-10-30T07:13:04;99225.03;;;10.72;100.00
21902;BME280;11115;46.038;14.612;2022-10-30T07:15:51;99225.28;;;10.76;100.00
21902;BME280;11115;46.038;14.612;2022-10-30T07:18:23;99224.16;;;10.77;100.00
21902;BME280;11115;46.038;14.612;2022-10-30T07:21:00;99226.38;;;10.80;100.00
21902;BME280;11115;46.038;14.612;2022-10-30T07:23:36;99215.31;;;10.80;100.00
21902;BME280;11115;46.038;14.612;2022-10-30T07:26:21;99222.81;;;10.74;100.00
21902;BME280;11115;46.038;14.612;2022-10-30T07:29:10;99219.28;;;10.69;100.00
21902;BME280;11115;46.038;14.612;2022-10-30T07:32:00;99236.53;;;10.60;100.00
21902;BME280;11115;46.038;14.612;2022-10-30T07:35:15;99215.25;;;10.56;100.00
21902;BME280;11115;46.038;14.612;2022-10-30T07:38:09;99235.13;;;10.63;100.00
21902;BME280;11115;46.038;14.612;2022-10-30T07:41:02;99243.13;;;10.59;100.00
21902;BME280;11115;46.038;14.612;2022-10-30T07:43:53;99239.28;;;10.60;100.00
21902;BME280;11115;46.038;14.612;2022-10-30T07:46:58;99238.28;;;10.80;100.00
21902;BME280;11115;46.038;14.612;2022-10-30T07:49:54;99239.78;;;10.91;100.00
21902;BME280;11115;46.038;14.612;2022-10-30T07:52:23;99240.03;;;10.95;100.00
21902;BME280;11115;46.038;14.612;2022-10-30T07:55:03;99233.88;;;11.03;100.00
21902;BME280;11115;46.038;14.612;2022-10-30T07:57:55;99235.84;;;10.98;100.00
21902;BME280;11115;46.038;14.612;2022-10-30T08:00:46;99239.19;;;11.00;100.00
21902;BME280;11115;46.038;14.612;2022-10-30T08:03:27;99240.16;;;11.09;100.00
21902;BME280;11115;46.038;14.612;2022-10-30T08:06:20;99241.13;;;11.23;100.00
21902;BME280;11115;46.038;14.612;2022-10-30T08:09:03;99237.81;;;11.21;100.00
21902;BME280;11115;46.038;14.612;2022-10-30T08:11:33;99239.47;;;11.22;100.00
21902;BME280;11115;46.038;14.612;2022-10-30T08:14:25;99233.13;;;10.92;100.00
21902;BME280;11115;46.038;14.612;2022-10-30T08:17:00;99237.69;;;11.07;100.00
21902;BME280;11115;46.038;14.612;2022-10-30T08:19:29;99245.03;;;11.17;100.00
21902;BME280;11115;46.038;14.612;2022-10-30T08:22:31;99236.03;;;11.06;100.00
21902;BME280;11115;46.038;14.612;2022-10-30T08:25:04;99227.50;;;11.27;100.00
21902;BME280;11115;46.038;14.612;2022-10-30T08:27:34;99231.84;;;11.33;100.00
21902;BME280;11115;46.038;14.612;2022-10-30T08:30:08;99235.50;;;11.28;100.00
21902;BME280;11115;46.038;14.612;2022-10-30T08:32:37;99226.53;;;11.36;100.00
21902;BME280;11115;46.038;14.612;2022-10-30T08:35:31;99228.13;;;11.42;100.00
21902;BME280;11115;46.038;14.612;2022-10-30T08:38:06;99221.38;;;11.30;100.00
21902;BME280;11115;46.038;14.612;2022-10-30T08:40:37;99211.41;;;11.29;100.00
21902;BME280;11115;46.038;14.612;2022-10-30T08:43:08;99222.78;;;11.70;100.00
21902;BME280;11115;46.038;14.612;2022-10-30T08:45:40;99222.69;;;11.75;100.00
21902;BME280;11115;46.038;14.612;2022-10-30T08:48:21;99213.47;;;11.84;100.00
21902;BME280;11115;46.038;14.612;2022-10-30T08:50:57;99217.44;;;11.97;100.00
21902;BME280;11115;46.038;14.612;2022-10-30T08:53:37;99218.09;;;12.08;100.00
21902;BME280;11115;46.038;14.612;2022-10-30T08:56:18;99200.81;;;11.97;100.00
21902;BME280;11115;46.038;14.612;2022-10-30T08:59:15;99216.75;;;12.05;100.00
21902;BME280;11115;46.038;14.612;2022-10-30T09:02:00;99205.03;;;12.08;100.00
21902;BME280;11115;46.038;14.612;2022-10-30T09:04:50;99206.16;;;12.07;100.00
21902;BME280;11115;46.038;14.612;2022-10-30T09:07:48;99205.84;;;11.71;100.00
21902;BME280;11115;46.038;14.612;2022-10-30T09:10:37;99207.00;;;12.08;100.00
21902;BME280;11115;46.038;14.612;2022-10-30T09:13:08;99201.22;;;12.23;100.00
21902;BME280;11115;46.038;14.612;2022-10-30T09:15:42;99201.13;;;12.28;100.00
21902;BME280;11115;46.038;14.612;2022-10-30T09:18:16;99202.41;;;12.50;100.00
21902;BME280;11115;46.038;14.612;2022-10-30T09:20:48;99194.91;;;12.50;100.00
21902;BME280;11115;46.038;14.612;2022-10-30T09:23:15;99194.06;;;12.36;100.00
21902;BME280;11115;46.038;14.612;2022-10-30T09:26:16;99195.41;;;12.38;100.00
21902;BME280;11115;46.038;14.612;2022-10-30T09:28:56;99195.91;;;12.87;100.00
21902;BME280;11115;46.038;14.612;2022-10-30T09:31:57;99194.13;;;13.37;100.00
21902;BME280;11115;46.038;14.612;2022-10-30T09:34:36;99198.41;;;13.16;100.00
21902;BME280;11115;46.038;14.612;2022-10-30T09:37:36;99190.00;;;13.21;100.00
21902;BME280;11115;46.038;14.612;2022-10-30T09:40:20;99189.81;;;13.31;100.00
21902;BME280;11115;46.038;14.612;2022-10-30T09:52:05;99185.34;;;13.44;100.00
21902;BME280;11115;46.038;14.612;2022-10-30T09:58:06;99180.34;;;14.04;100.00
21902;BME280;11115;46.038;14.612;2022-10-30T10:01:36;99179.22;;;14.72;100.00
21902;BME280;11115;46.038;14.612;2022-10-30T10:07:58;99166.25;;;14.45;100.00
21902;BME280;11115;46.038;14.612;2022-10-30T10:11:08;99149.75;;;14.04;100.00
21902;BME280;11115;46.038;14.612;2022-10-30T10:13:52;99159.13;;;14.53;100.00
21902;BME280;11115;46.038;14.612;2022-10-30T10:16:30;99152.84;;;14.70;100.00
21902;BME280;11115;46.038;14.612;2022-10-30T10:23:00;99124.00;;;15.14;100.00
21902;BME280;11115;46.038;14.612;2022-10-30T10:25:34;99121.50;;;15.78;100.00
21902;BME280;11115;46.038;14.612;2022-10-30T10:28:28;99131.16;;;15.81;100.00
21902;BME280;11115;46.038;14.612;2022-10-30T10:46:19;99096.22;;;17.62;100.00
21902;BME280;11115;46.038;14.612;2022-10-30T10:52:02;99095.06;;;18.04;100.00
21902;BME280;11115;46.038;14.612;2022-10-30T10:54:42;99085.72;;;18.45;100.00
21902;BME280;11115;46.038;14.612;2022-10-30T10:57:26;99075.19;;;18.63;100.00
21902;BME280;11115;46.038;14.612;2022-10-30T11:02:40;99079.78;;;18.35;100.00
21902;BME280;11115;46.038;14.612;2022-10-30T11:05:38;99076.47;;;18.66;100.00
21902;BME280;11115;46.038;14.612;2022-10-30T11:08:30;99062.88;;;18.56;100.00
21902;BME280;11115;46.038;14.612;2022-10-30T11:11:04;99057.94;;;19.75;100.00
21902;BME280;11115;46.038;14.612;2022-10-30T11:13:39;99055.19;;;22.37;100.00
21902;BME280;11115;46.038;14.612;2022-10-30T11:19:23;99039.88;;;26.57;96.97
21902;BME280;11115;46.038;14.612;2022-10-30T11:21:58;99040.75;;;23.94;100.00
21902;BME280;11115;46.038;14.612;2022-10-30T11:24:39;99033.56;;;20.98;100.00
21902;BME280;11115;46.038;14.612;2022-10-30T11:27:26;99038.72;;;19.89;100.00
21902;BME280;11115;46.038;14.612;2022-10-30T11:30:05;99039.38;;;19.70;100.00
21902;BME280;11115;46.038;14.612;2022-10-30T11:32:36;99045.94;;;19.50;100.00
21902;BME280;11115;46.038;14.612;2022-10-30T11:35:17;99043.16;;;19.37;100.00
21902;BME280;11115;46.038;14.612;2022-10-30T11:37:51;99033.13;;;19.77;100.00
21902;BME280;11115;46.038;14.612;2022-10-30T11:40:38;99037.06;;;19.88;100.00
21902;BME280;11115;46.038;14.612;2022-10-30T11:43:14;99023.03;;;19.88;100.00
21902;BME280;11115;46.038;14.612;2022-10-30T11:45:59;99016.59;;;21.26;100.00
21902;BME280;11115;46.038;14.612;2022-10-30T11:48:45;99013.56;;;20.52;100.00
21902;BME280;11115;46.038;14.612;2022-10-30T11:51:34;99006.69;;;20.65;100.00
21902;BME280;11115;46.038;14.612;2022-10-30T11:54:20;99005.50;;;21.17;100.00
21902;BME280;11115;46.038;14.612;2022-10-30T11:56:58;99005.53;;;21.01;100.00
21902;BME280;11115;46.038;14.612;2022-10-30T11:59:27;98971.47;;;20.87;100.00
21902;BME280;11115;46.038;14.612;2022-10-30T12:02:19;98995.06;;;21.17;100.00
21902;BME280;11115;46.038;14.612;2022-10-30T12:04:55;98995.41;;;21.32;100.00
21902;BME280;11115;46.038;14.612;2022-10-30T12:07:33;98982.81;;;22.22;100.00
21902;BME280;11115;46.038;14.612;2022-10-30T12:10:29;98975.06;;;24.89;100.00
21902;BME280;11115;46.038;14.612;2022-10-30T12:13:12;98972.91;;;26.17;93.69
21902;BME280;11115;46.038;14.612;2022-10-30T12:16:12;98966.91;;;28.27;82.51
21902;BME280;11115;46.038;14.612;2022-10-30T12:19:06;98968.91;;;28.30;64.78
21902;BME280;11115;46.038;14.612;2022-10-30T12:21:47;98962.72;;;30.07;58.10
21902;BME280;11115;46.038;14.612;2022-10-30T12:24:27;98956.75;;;28.82;63.08
21902;BME280;11115;46.038;14.612;2022-10-30T12:27:02;98963.91;;;25.83;70.19
21902;BME280;11115;46.038;14.612;2022-10-30T12:30:07;98950.66;;;25.25;86.17
21902;BME280;11115;46.038;14.612;2022-10-30T12:33:05;98949.94;;;23.96;92.77
21902;BME280;11115;46.038;14.612;2022-10-30T12:35:55;98947.56;;;23.64;100.00
21902;BME280;11115;46.038;14.612;2022-10-30T12:38:54;98938.69;;;23.36;100.00
21902;BME280;11115;46.038;14.612;2022-10-30T12:44:32;98942.69;;;23.05;100.00
21902;BME280;11115;46.038;14.612;2022-10-30T12:50:26;98940.56;;;23.54;100.00
21902;BME280;11115;46.038;14.612;2022-10-30T12:56:07;98938.88;;;23.80;100.00
21902;BME280;11115;46.038;14.612;2022-10-30T12:58:52;98938.16;;;23.90;100.00
21902;BME280;11115;46.038;14.612;2022-10-30T13:01:35;98933.19;;;25.09;100.00
21902;BME280;11115;46.038;14.612;2022-10-30T13:04:17;98934.03;;;26.28;88.91
21902;BME280;11115;46.038;14.612;2022-10-30T13:07:05;98932.75;;;28.31;72.29
21902;BME280;11115;46.038;14.612;2022-10-30T13:12:28;98923.88;;;30.17;60.01
21902;BME280;11115;46.038;14.612;2022-10-30T13:15:22;98925.63;;;30.61;57.62
21902;BME280;11115;46.038;14.612;2022-10-30T13:18:21;98919.81;;;29.53;60.72
21902;BME280;11115;46.038;14.612;2022-10-30T13:26:54;98913.97;;;30.99;57.34
21902;BME280;11115;46.038;14.612;2022-10-30T13:29:46;98909.09;;;29.65;57.75
21902;BME280;11115;46.038;14.612;2022-10-30T13:42:12;98907.69;;;24.10;100.00
21902;BME280;11115;46.038;14.612;2022-10-30T13:48:14;98889.00;;;22.22;100.00
21902;BME280;11115;46.038;14.612;2022-10-30T14:00:12;98858.31;;;21.51;100.00
21902;BME280;11115;46.038;14.612;2022-10-30T14:08:51;98912.13;;;21.11;100.00
21902;BME280;11115;46.038;14.612;2022-10-30T14:11:30;98905.69;;;20.91;100.00
21902;BME280;11115;46.038;14.612;2022-10-30T14:14:25;98910.19;;;20.61;100.00
21902;BME280;11115;46.038;14.612;2022-10-30T14:22:40;98899.31;;;20.28;100.00
21902;BME280;11115;46.038;14.612;2022-10-30T14:25:13;98888.25;;;20.04;100.00
21902;BME280;11115;46.038;14.612;2022-10-30T14:27:54;98908.63;;;20.00;100.00
21902;BME280;11115;46.038;14.612;2022-10-30T14:30:26;98914.34;;;19.88;100.00
21902;BME280;11115;46.038;14.612;2022-10-30T14:32:56;98914.50;;;19.80;100.00
21902;BME280;11115;46.038;14.612;2022-10-30T14:35:38;98903.50;;;19.59;100.00
21902;BME280;11115;46.038;14.612;2022-10-30T14:38:21;98911.41;;;19.41;100.00
21902;BME280;11115;46.038;14.612;2022-10-30T14:41:16;98914.66;;;19.15;100.00
21902;BME280;11115;46.038;14.612;2022-10-30T14:44:04;98918.19;;;19.12;100.00
21902;BME280;11115;46.038;14.612;2022-10-30T14:49:56;98903.75;;;18.86;100.00
21902;BME280;11115;46.038;14.612;2022-10-30T14:56:09;98910.19;;;18.74;100.00
21902;BME280;11115;46.038;14.612;2022-10-30T14:59:50;98912.41;;;18.68;100.00
21902;BME280;11115;46.038;14.612;2022-10-30T15:02:28;98916.50;;;18.59;100.00
21902;BME280;11115;46.038;14.612;2022-10-30T15:11:16;98918.22;;;18.27;100.00
21902;BME280;11115;46.038;14.612;2022-10-30T15:13:56;98910.78;;;18.18;100.00
21902;BME280;11115;46.038;14.612;2022-10-30T15:16:28;98923.13;;;18.05;100.00
21902;BME280;11115;46.038;14.612;2022-10-30T15:19:08;98907.25;;;18.09;100.00
21902;BME280;11115;46.038;14.612;2022-10-30T15:21:58;98921.25;;;17.97;100.00
21902;BME280;11115;46.038;14.612;2022-10-30T15:24:47;98925.41;;;17.79;100.00
21902;BME280;11115;46.038;14.612;2022-10-30T15:27:41;98925.84;;;17.69;100.00
21902;BME280;11115;46.038;14.612;2022-10-30T15:30:30;98924.47;;;17.54;100.00
21902;BME280;11115;46.038;14.612;2022-10-30T15:33:21;98922.22;;;17.47;100.00
21902;BME280;11115;46.038;14.612;2022-10-30T15:36:27;98926.19;;;17.46;100.00
21902;BME280;11115;46.038;14.612;2022-10-30T15:39:17;98880.59;;;17.13;100.00
21902;BME280;11115;46.038;14.612;2022-10-30T15:42:04;98931.41;;;17.15;100.00
21902;BME280;11115;46.038;14.612;2022-10-30T15:45:09;98929.84;;;17.05;100.00
21902;BME280;11115;46.038;14.612;2022-10-30T15:48:26;98933.59;;;16.88;100.00
21902;BME280;11115;46.038;14.612;2022-10-30T15:51:18;98931.22;;;16.78;100.00
21902;BME280;11115;46.038;14.612;2022-10-30T15:54:09;98942.81;;;16.59;100.00
21902;BME280;11115;46.038;14.612;2022-10-30T15:57:01;98954.22;;;16.46;100.00